This is the latest recevied weather packets stored in our database for station/object OK3MS-5. If no packets are shown the sender has not sent any weather packets the latest 10 day(s).
| Time | Temp. | Humidity | Pressure | Rain* | Wind** | Luminosity | Snow |
|---|---|---|---|---|---|---|---|
| 1788089104 | 23.89° C | 55% | 1013.8 hPa | 0 mm | - | 631 W/m² | - |
| 1788088802 | 24.44° C | 55% | 1013.7 hPa | 0 mm | - | 230 W/m² | - |
| 1788088503 | 24.44° C | 56% | 1013.6 hPa | 0 mm | - | 285 W/m² | - |
| 1788088203 | 24.44° C | 54% | 1013.7 hPa | 0 mm | - | 466 W/m² | - |
| 1788087905 | 23.89° C | 57% | 1013.8 hPa | 0 mm | - | 315 W/m² | - |
| 1788087603 | 24.44° C | 56% | 1013.8 hPa | 0 mm | - | 282 W/m² | - |
| 1788087303 | 24.44° C | 55% | 1013.8 hPa | 0 mm | - | 325 W/m² | - |
| 1788087004 | 24.44° C | 54% | 1013.8 hPa | 0 mm | - | 349 W/m² | - |
| 1788086703 | 24.44° C | 53% | 1013.8 hPa | 0 mm | - | 663 W/m² | - |
| 1788086404 | 25° C | 53% | 1013.9 hPa | 0 mm | - | 452 W/m² | - |
| 1788086103 | 25° C | 52% | 1013.8 hPa | 0 mm | - | 647 W/m² | - |
| 1788085804 | 24.44° C | 54% | 1014 hPa | 0 mm | - | 682 W/m² | - |
| 1788085505 | 23.89° C | 54% | 1014.2 hPa | 0 mm | - | 697 W/m² | - |
| 1788085202 | 23.89° C | 56% | 1014.2 hPa | 0 mm | - | 653 W/m² | - |
| 1788084904 | 23.89° C | 55% | 1014.1 hPa | 0 mm | - | 614 W/m² | - |
| 1788084604 | 24.44° C | 56% | 1014 hPa | 0 mm | - | 225 W/m² | - |
| 1788084304 | 24.44° C | 54% | 1014.1 hPa | 0 mm | - | 553 W/m² | - |
| 1788084003 | 23.89° C | 53% | 1014.3 hPa | 0 mm | - | 710 W/m² | - |
| 1788083706 | 23.89° C | 53% | 1014.4 hPa | 0 mm | - | 584 W/m² | - |
| 1788083403 | 23.89° C | 54% | 1014.4 hPa | 0 mm | - | 712 W/m² | - |
| 1788083103 | 23.89° C | 54% | 1014.5 hPa | 0 mm | - | 642 W/m² | - |
| 1788082803 | 23.33° C | 58% | 1014.7 hPa | 0 mm | - | 627 W/m² | - |
| 1788082504 | 23.33° C | 55% | 1014.8 hPa | 0 mm | - | 629 W/m² | - |
| 1788082202 | 23.89° C | 54% | 1014.7 hPa | 0 mm | - | 664 W/m² | - |
| 1788081902 | 23.33° C | 55% | 1014.9 hPa | 0 mm | - | 644 W/m² | - |
* Rain latest hour (hover to see other rain measurements)
** Current wind speed in m/s (hover to see current wind gust speed)